createdAt,value
2023-08-08T00:00:12.158Z,101521.38
2023-08-08T00:02:13.736Z,101529.03
2023-08-08T00:04:15.471Z,101528.00
2023-08-08T00:06:17.149Z,101530.03
2023-08-08T00:08:18.734Z,101529.03
2023-08-08T00:10:20.387Z,101524.59
2023-08-08T00:12:21.963Z,101530.19
2023-08-08T00:14:23.661Z,101527.47
2023-08-08T00:16:25.410Z,101524.75
2023-08-08T00:18:27.056Z,101526.47
2023-08-08T00:20:29.123Z,101526.47
2023-08-08T00:22:30.963Z,101515.91
2023-08-08T00:24:33.032Z,101520.50
2023-08-08T00:26:34.849Z,101519.47
2023-08-08T00:28:36.451Z,101528.34
2023-08-08T00:30:38.106Z,101518.47
2023-08-08T00:32:40.195Z,101522.03
2023-08-08T00:34:41.866Z,101518.47
2023-08-08T00:36:43.429Z,101520.31
2023-08-08T00:38:44.958Z,101506.06
2023-08-08T00:40:46.695Z,101510.47
2023-08-08T00:42:48.356Z,101508.59
2023-08-08T00:44:49.999Z,101500.63
2023-08-08T00:46:52.225Z,101503.34
2023-08-08T00:48:53.999Z,101503.34
2023-08-08T00:50:55.795Z,101492.78
2023-08-08T00:52:57.569Z,101496.34
2023-08-08T00:55:00.361Z,101498.75
2023-08-08T00:57:02.268Z,101497.06
2023-08-08T00:59:04.301Z,101489.75
2023-08-08T01:01:06.015Z,101488.91
2023-08-08T01:03:07.865Z,101488.19
2023-08-08T01:05:10.242Z,101484.63
2023-08-08T01:07:39.835Z,101486.34
2023-08-08T01:09:51.611Z,101488.19
2023-08-08T01:11:54.113Z,101484.63
2023-08-08T01:13:56.979Z,101483.78
2023-08-08T01:15:59.024Z,101484.81
2023-08-08T01:18:00.790Z,101486.50
2023-08-08T01:20:05.519Z,101482.09
2023-08-08T01:22:15.399Z,101490.25
2023-08-08T01:24:19.091Z,101487.69
2023-08-08T01:26:22.693Z,101486.50
2023-08-08T01:28:25.136Z,101489.41
2023-08-08T01:30:26.683Z,101489.41
2023-08-08T01:32:28.693Z,101490.25
2023-08-08T01:34:30.725Z,101486.69
2023-08-08T01:36:43.505Z,101483.09
2023-08-08T01:38:49.858Z,101480.38
2023-08-08T01:40:51.844Z,101482.25
2023-08-08T01:42:54.456Z,101487.69
2023-08-08T01:44:56.972Z,101491.41
2023-08-08T01:46:58.623Z,101490.41
2023-08-08T01:49:00.931Z,101485.47
2023-08-08T01:51:02.549Z,101496.00
2023-08-08T01:53:04.986Z,101495.16
2023-08-08T01:55:07.532Z,101500.44
2023-08-08T01:57:09.231Z,101495.16
2023-08-08T01:59:10.795Z,101493.28
2023-08-08T02:01:12.468Z,101489.72
2023-08-08T02:03:14.375Z,101492.44
2023-08-08T02:05:16.157Z,101487.00
2023-08-08T02:07:18.234Z,101484.28
2023-08-08T02:09:21.944Z,101485.31
2023-08-08T02:11:24.015Z,101472.72
2023-08-08T02:13:25.671Z,101474.44
2023-08-08T02:15:27.310Z,101467.09
2023-08-08T02:17:30.162Z,101460.00
2023-08-08T02:19:31.858Z,101461.84
2023-08-08T02:21:33.529Z,101460.16
2023-08-08T02:23:35.447Z,101462.88
2023-08-08T02:25:37.002Z,101470.88
2023-08-08T02:27:38.555Z,101463.03
2023-08-08T02:29:40.251Z,101464.72
2023-08-08T02:31:41.968Z,101463.72
2023-08-08T02:33:43.627Z,101456.56
2023-08-08T02:35:45.234Z,101454.72
2023-08-08T02:37:46.898Z,101452.16
2023-08-08T02:39:48.645Z,101444.00
2023-08-08T02:41:50.247Z,101445.69
2023-08-08T02:43:51.987Z,101444.00
2023-08-08T02:45:53.562Z,101447.75
2023-08-08T02:47:55.219Z,101441.81
2023-08-08T02:49:57.006Z,101455.91
2023-08-08T02:51:58.854Z,101454.03
2023-08-08T02:54:00.720Z,101458.09
2023-08-08T02:56:02.396Z,101465.75
2023-08-08T02:58:04.110Z,101462.34
2023-08-08T03:00:06.401Z,101451.47
2023-08-08T03:02:08.086Z,101448.56
2023-08-08T03:04:09.991Z,101462.34
2023-08-08T03:06:12.584Z,101467.78
2023-08-08T03:08:14.245Z,101466.78
2023-08-08T03:10:16.660Z,101465.06
2023-08-08T03:12:18.434Z,101475.09
2023-08-08T03:14:20.033Z,101469.66
2023-08-08T03:16:21.805Z,101466.09
2023-08-08T03:18:24.077Z,101463.22
2023-08-08T03:20:25.824Z,101464.22
2023-08-08T03:22:27.637Z,101465.22
2023-08-08T03:24:29.315Z,101461.66
2023-08-08T03:26:30.860Z,101458.94
2023-08-08T03:28:32.674Z,101462.50
2023-08-08T03:30:34.215Z,101464.38
2023-08-08T03:32:35.964Z,101451.78
2023-08-08T03:34:37.645Z,101458.94
2023-08-08T03:36:41.010Z,101449.41
2023-08-08T03:38:46.719Z,101461.00
2023-08-08T03:40:48.787Z,101472.00
2023-08-08T03:42:50.582Z,101471.00
2023-08-08T03:44:52.262Z,101466.44
2023-08-08T03:46:59.437Z,101471.88
2023-08-08T03:49:07.449Z,101472.72
2023-08-08T03:51:09.018Z,101468.78
2023-08-08T03:53:10.594Z,101476.44
2023-08-08T03:55:12.569Z,101472.88
2023-08-08T03:57:14.259Z,101479.16
2023-08-08T03:59:15.949Z,101479.31
2023-08-08T04:01:17.694Z,101477.44
2023-08-08T04:03:19.422Z,101482.03
2023-08-08T04:05:21.133Z,101473.19
2023-08-08T04:07:22.753Z,101474.72
2023-08-08T04:09:24.353Z,101473.88
2023-08-08T04:11:25.934Z,101477.59
2023-08-08T04:13:27.549Z,101476.59
2023-08-08T04:15:29.637Z,101474.03
2023-08-08T04:17:31.309Z,101467.75
2023-08-08T04:19:33.120Z,101475.91
2023-08-08T04:21:34.834Z,101476.59
2023-08-08T04:23:36.457Z,101468.44
2023-08-08T04:25:38.034Z,101472.16
2023-08-08T04:27:39.617Z,101470.47
2023-08-08T04:29:41.275Z,101467.75
2023-08-08T04:31:42.940Z,101464.69
2023-08-08T04:33:44.536Z,101473.19
2023-08-08T04:35:46.296Z,101474.22
2023-08-08T04:37:48.071Z,101477.75
2023-08-08T04:39:49.687Z,101468.78
2023-08-08T04:41:51.399Z,101469.78
2023-08-08T04:43:53.015Z,101474.38
2023-08-08T04:45:54.782Z,101475.38
2023-08-08T04:47:56.811Z,101477.09
2023-08-08T04:49:58.622Z,101477.09
2023-08-08T04:52:00.599Z,101479.97
2023-08-08T04:54:02.415Z,101477.09
2023-08-08T04:56:04.504Z,101466.22
2023-08-08T04:58:06.265Z,101461.28
2023-08-08T05:00:09.736Z,101463.66
2023-08-08T05:02:11.416Z,101458.22
2023-08-08T05:04:13.074Z,101467.22
2023-08-08T05:06:14.816Z,101466.38
2023-08-08T05:08:16.700Z,101463.00
2023-08-08T05:10:18.445Z,101462.81
2023-08-08T05:12:20.422Z,101465.53
2023-08-08T05:14:22.080Z,101461.13
2023-08-08T05:16:25.276Z,101464.50
2023-08-08T05:18:26.853Z,101457.41
2023-08-08T05:20:28.508Z,101452.28
2023-08-08T05:22:30.237Z,101449.41
2023-08-08T05:24:31.910Z,101448.69
2023-08-08T05:26:33.532Z,101453.81
2023-08-08T05:28:35.256Z,101453.13
2023-08-08T05:30:36.974Z,101453.81
2023-08-08T05:32:38.604Z,101455.00
2023-08-08T05:34:40.225Z,101455.69
2023-08-08T05:36:41.906Z,101460.28
2023-08-08T05:38:43.580Z,101460.28
2023-08-08T05:40:45.228Z,101458.22
2023-08-08T05:42:46.920Z,101464.50
2023-08-08T05:44:48.506Z,101466.38
2023-08-08T05:46:50.353Z,101466.56
2023-08-08T05:48:52.129Z,101469.09
2023-08-08T05:50:53.884Z,101466.72
2023-08-08T05:52:55.785Z,101472.81
2023-08-08T05:55:00.136Z,101476.41
2023-08-08T05:57:03.872Z,101480.81
2023-08-08T05:59:05.702Z,101473.53
2023-08-08T06:01:10.376Z,101483.53
2023-08-08T06:03:12.420Z,101476.25
2023-08-08T06:05:14.105Z,101479.13
2023-08-08T06:07:15.844Z,101478.97
2023-08-08T06:09:18.120Z,101474.38
2023-08-08T06:11:19.990Z,101484.41
2023-08-08T06:13:21.599Z,101490.69
2023-08-08T06:15:24.200Z,101488.81
2023-08-08T06:17:25.837Z,101490.69
2023-08-08T06:19:27.665Z,101490.69
2023-08-08T06:21:29.350Z,101485.09
2023-08-08T06:23:30.992Z,101499.50
2023-08-08T06:25:32.686Z,101505.09
2023-08-08T06:27:34.402Z,101503.09
2023-08-08T06:29:36.118Z,101497.81
2023-08-08T06:31:37.985Z,101499.69
2023-08-08T06:33:39.607Z,101503.09
2023-08-08T06:35:41.227Z,101501.38
2023-08-08T06:37:43.172Z,101503.94
2023-08-08T06:39:44.856Z,101507.66
2023-08-08T06:41:46.418Z,101504.78
2023-08-08T06:43:48.114Z,101502.06
2023-08-08T06:45:49.827Z,101498.50
2023-08-08T06:47:51.775Z,101491.34
2023-08-08T06:49:53.511Z,101490.34
2023-08-08T06:51:55.114Z,101491.19
2023-08-08T06:53:56.913Z,101503.94
2023-08-08T06:55:58.492Z,101493.91
2023-08-08T06:58:00.132Z,101487.81
2023-08-08T07:00:02.211Z,101494.78
2023-08-08T07:02:04.458Z,101493.91
2023-08-08T07:04:06.696Z,101489.34
2023-08-08T07:06:08.486Z,101485.75
2023-08-08T07:08:10.135Z,101491.19
2023-08-08T07:10:13.738Z,101502.06
2023-08-08T07:12:15.526Z,101505.66
2023-08-08T07:14:17.127Z,101501.06
2023-08-08T07:16:18.834Z,101486.78
2023-08-08T07:18:20.551Z,101482.03
2023-08-08T07:20:22.290Z,101481.03
2023-08-08T07:22:24.386Z,101482.19
2023-08-08T07:24:29.751Z,101479.47
2023-08-08T07:26:31.467Z,101475.75
2023-08-08T07:28:34.111Z,101482.88
2023-08-08T07:30:36.525Z,101482.88
2023-08-08T07:32:38.200Z,101478.13
2023-08-08T07:34:39.906Z,101473.88
2023-08-08T07:36:41.538Z,101471.00
2023-08-08T07:38:43.182Z,101478.31
2023-08-08T07:40:45.935Z,101479.16
2023-08-08T07:42:50.066Z,101480.03
2023-08-08T07:44:51.716Z,101470.66
2023-08-08T07:46:53.338Z,101477.97
2023-08-08T07:48:55.005Z,101478.66
2023-08-08T07:50:56.694Z,101481.53
2023-08-08T07:52:58.380Z,101490.06
2023-08-08T07:54:59.973Z,101477.31
2023-08-08T07:57:01.576Z,101470.00
2023-08-08T07:59:04.236Z,101472.88
2023-08-08T08:01:08.164Z,101469.00
2023-08-08T08:03:10.078Z,101466.09
2023-08-08T08:05:12.671Z,101467.81
2023-08-08T08:07:14.380Z,101463.06
2023-08-08T08:09:16.452Z,101462.38
2023-08-08T08:11:18.171Z,101467.47
2023-08-08T08:13:20.044Z,101468.31
2023-08-08T08:15:21.656Z,101469.16
2023-08-08T08:17:23.289Z,101470.19
2023-08-08T08:19:24.838Z,101463.72
2023-08-08T08:21:26.434Z,101463.56
2023-08-08T08:23:28.037Z,101458.13
2023-08-08T08:25:29.734Z,101462.56
2023-08-08T08:27:31.270Z,101463.22
2023-08-08T08:29:34.217Z,101446.41
2023-08-08T08:31:35.999Z,101458.66
2023-08-08T08:33:37.687Z,101453.22
2023-08-08T08:35:39.501Z,101461.22
2023-08-08T08:37:41.121Z,101457.47
2023-08-08T08:39:42.763Z,101459.31
2023-08-08T08:41:49.777Z,101460.88
2023-08-08T08:43:51.745Z,101459.16
2023-08-08T08:45:55.171Z,101466.13
2023-08-08T08:47:58.628Z,101467.84
2023-08-08T08:50:02.893Z,101460.69
2023-08-08T08:52:06.180Z,101465.97
2023-08-08T08:54:08.084Z,101471.41
2023-08-08T08:56:10.105Z,101473.16
2023-08-08T08:58:16.231Z,101467.56
2023-08-08T09:00:20.077Z,101456.84
2023-08-08T09:02:22.034Z,101462.09
2023-08-08T09:04:24.416Z,101463.78
2023-08-08T09:06:27.865Z,101461.78
2023-08-08T09:08:30.596Z,101454.63
2023-08-08T09:10:33.153Z,101459.72
2023-08-08T09:12:35.367Z,101461.44
2023-08-08T09:14:42.990Z,101453.44
2023-08-08T09:16:45.038Z,101460.41
2023-08-08T09:18:46.627Z,101456.66
2023-08-08T09:20:51.383Z,101448.69
2023-08-08T09:22:53.732Z,101458.53
2023-08-08T09:24:56.238Z,101457.50
2023-08-08T09:26:57.864Z,101455.50
2023-08-08T09:28:59.584Z,101453.59
2023-08-08T09:31:01.419Z,101447.16
2023-08-08T09:33:03.349Z,101456.88
2023-08-08T09:35:10.794Z,101451.41
2023-08-08T09:37:13.117Z,101445.97
2023-08-08T09:39:14.913Z,101440.69
2023-08-08T09:41:16.668Z,101444.94
2023-08-08T09:43:18.460Z,101434.94
2023-08-08T09:45:20.508Z,101431.88
2023-08-08T09:47:23.301Z,101421.00
2023-08-08T09:49:25.201Z,101423.72
2023-08-08T09:51:28.179Z,101419.94
2023-08-08T09:53:30.529Z,101419.94
2023-08-08T09:55:33.372Z,101406.34
2023-08-08T09:57:36.194Z,101424.38
2023-08-08T09:59:38.635Z,101412.81
2023-08-08T10:01:42.491Z,101408.91
2023-08-08T10:03:44.972Z,101412.31
2023-08-08T10:05:47.005Z,101411.09
2023-08-08T10:07:48.733Z,101411.09
2023-08-08T10:09:50.432Z,101411.09
2023-08-08T10:11:52.680Z,101409.25
2023-08-08T10:13:54.912Z,101413.66
2023-08-08T10:15:56.733Z,101400.03
2023-08-08T10:17:59.224Z,101403.63
2023-08-08T10:20:10.041Z,101407.19
2023-08-08T10:22:11.774Z,101403.28
2023-08-08T10:24:14.528Z,101392.59
2023-08-08T10:26:20.558Z,101404.13
2023-08-08T10:28:26.785Z,101411.13
2023-08-08T10:30:29.225Z,101401.91
2023-08-08T10:32:40.303Z,101404.63
2023-08-08T10:34:44.243Z,101412.66
2023-08-08T10:36:50.847Z,101405.16
2023-08-08T10:38:53.322Z,101399.72
2023-08-08T10:40:59.303Z,101400.56
2023-08-08T10:43:12.528Z,101404.81
2023-08-08T10:45:16.901Z,101408.19
2023-08-08T10:47:23.415Z,101402.94
2023-08-08T10:49:25.227Z,101400.72
2023-08-08T10:51:43.688Z,101395.13
2023-08-08T10:53:46.507Z,101393.41
2023-08-08T10:55:50.181Z,101386.09
2023-08-08T10:58:04.046Z,101387.63
2023-08-08T11:00:19.516Z,101398.34
2023-08-08T11:02:22.437Z,101396.44
2023-08-08T11:04:27.004Z,101397.31
2023-08-08T11:06:28.974Z,101396.28
2023-08-08T11:08:34.197Z,101385.38
2023-08-08T11:10:39.848Z,101393.56
2023-08-08T11:12:41.525Z,101390.81
2023-08-08T11:14:44.645Z,101386.25
2023-08-08T11:16:48.000Z,101392.53
2023-08-08T11:18:49.666Z,101382.66
2023-08-08T11:20:52.574Z,101381.66
2023-08-08T11:22:57.350Z,101384.19
2023-08-08T11:25:04.369Z,101386.09
2023-08-08T11:27:06.164Z,101381.31
2023-08-08T11:29:08.174Z,101378.75
2023-08-08T11:31:10.008Z,101375.84
2023-08-08T11:33:16.174Z,101376.38
2023-08-08T11:35:19.495Z,101371.91
2023-08-08T11:37:21.642Z,101366.28
2023-08-08T11:39:23.514Z,101358.47
2023-08-08T11:41:27.172Z,101360.50
2023-08-08T11:43:29.003Z,101359.16
2023-08-08T11:45:32.253Z,101367.63
2023-08-08T11:47:37.059Z,101362.84
2023-08-08T11:49:43.274Z,101354.69
2023-08-08T11:51:46.847Z,101358.75
2023-08-08T11:53:51.788Z,101359.59
2023-08-08T11:55:53.653Z,101338.34
2023-08-08T11:57:57.893Z,101351.06
2023-08-08T11:59:59.597Z,101356.69
2023-08-08T12:02:01.762Z,101353.63
2023-08-08T12:04:08.131Z,101356.16
2023-08-08T12:06:14.624Z,101352.25
2023-08-08T12:08:24.998Z,101341.00
2023-08-08T12:10:26.677Z,101339.31
2023-08-08T12:12:29.206Z,101339.78
2023-08-08T12:14:32.318Z,101330.44
2023-08-08T12:16:34.877Z,101325.16
2023-08-08T12:18:39.169Z,101334.28
2023-08-08T12:20:42.106Z,101325.09
2023-08-08T12:22:43.743Z,101333.75
2023-08-08T12:24:45.349Z,101323.72
2023-08-08T12:26:47.144Z,101334.44
2023-08-08T12:28:48.879Z,101326.09
2023-08-08T12:30:50.553Z,101325.06
2023-08-08T12:32:52.589Z,101315.84
2023-08-08T12:34:54.378Z,101314.81
2023-08-08T12:36:55.974Z,101318.22
2023-08-08T12:41:05.001Z,101307.81
2023-08-08T12:43:06.646Z,101309.31
2023-08-08T12:45:08.585Z,101300.94
2023-08-08T12:47:10.238Z,101295.69
2023-08-08T12:53:26.212Z,101297.31
2023-08-08T12:55:27.904Z,101288.81
2023-08-08T12:57:29.620Z,101288.63
2023-08-08T12:59:31.462Z,101293.19
2023-08-08T13:03:45.288Z,101286.38
2023-08-08T13:05:49.691Z,101288.91
2023-08-08T13:07:51.339Z,101284.09
2023-08-08T13:09:53.040Z,101282.06
2023-08-08T13:11:54.765Z,101281.19
2023-08-08T13:13:56.478Z,101270.09
2023-08-08T13:18:04.877Z,101281.19
2023-08-08T13:20:08.668Z,101279.94
2023-08-08T13:22:10.274Z,101280.44
2023-08-08T13:24:13.873Z,101289.47
2023-08-08T13:26:16.493Z,101280.72
2023-08-08T13:28:20.488Z,101282.44
2023-08-08T13:30:22.829Z,101285.44
2023-08-08T13:32:24.585Z,101284.22
2023-08-08T13:34:26.245Z,101279.25
2023-08-08T13:36:27.940Z,101281.63
2023-08-08T13:38:29.655Z,101272.38
2023-08-08T13:40:31.376Z,101270.34
2023-08-08T13:42:33.061Z,101275.44
2023-08-08T13:44:35.170Z,101268.09
2023-08-08T13:46:36.794Z,101259.91
2023-08-08T13:48:38.526Z,101255.09
2023-08-08T13:50:40.164Z,101254.91
2023-08-08T13:52:42.266Z,101258.31
2023-08-08T13:54:43.829Z,101254.34
2023-08-08T13:56:45.531Z,101251.44
2023-08-08T13:58:47.393Z,101257.75
2023-08-08T14:00:49.929Z,101256.03
2023-08-08T14:02:51.752Z,101251.03
2023-08-08T14:04:53.601Z,101260.75
2023-08-08T14:06:55.328Z,101256.50
2023-08-08T14:08:57.361Z,101270.63
2023-08-08T14:10:59.241Z,101269.81
2023-08-08T14:13:00.931Z,101263.28
2023-08-08T14:17:09.110Z,101244.00
2023-08-08T14:19:11.260Z,101238.09
2023-08-08T14:21:12.853Z,101264.63
2023-08-08T14:23:14.498Z,101253.72
2023-08-08T14:25:16.365Z,101249.94
2023-08-08T14:27:18.120Z,101242.16
2023-08-08T14:29:19.897Z,101245.78
2023-08-08T14:31:21.829Z,101246.66
2023-08-08T14:33:24.067Z,101244.31
2023-08-08T14:41:35.573Z,101246.47
2023-08-08T14:43:37.228Z,101250.69
2023-08-08T14:45:39.674Z,101248.63
2023-08-08T14:49:48.331Z,101244.00
2023-08-08T14:51:49.970Z,101245.72
2023-08-08T14:53:51.569Z,101254.72
2023-08-08T14:55:53.253Z,101252.50
2023-08-08T14:57:54.985Z,101251.25
2023-08-08T14:59:58.823Z,101243.94
2023-08-08T15:02:00.413Z,101251.94
2023-08-08T15:04:02.116Z,101247.09
2023-08-08T15:06:03.912Z,101247.31
2023-08-08T15:08:05.745Z,101246.28
2023-08-08T15:10:08.152Z,101247.94
2023-08-08T15:14:16.570Z,101246.19
2023-08-08T15:16:18.705Z,101252.28
2023-08-08T15:18:20.389Z,101255.31
2023-08-08T15:20:22.108Z,101243.72
2023-08-08T15:22:23.694Z,101249.00
2023-08-08T15:24:25.440Z,101247.97
2023-08-08T15:26:27.062Z,101243.19
2023-08-08T15:28:28.925Z,101237.34
2023-08-08T15:30:33.495Z,101240.72
2023-08-08T15:32:35.136Z,101249.34
2023-08-08T15:34:37.744Z,101240.97
2023-08-08T15:36:39.382Z,101248.13
2023-08-08T15:38:41.961Z,101248.59
2023-08-08T15:40:43.552Z,101252.84
2023-08-08T15:42:45.128Z,101257.25
2023-08-08T15:44:46.852Z,101250.94
2023-08-08T15:46:48.622Z,101249.53
2023-08-08T15:48:50.352Z,101239.47
2023-08-08T15:50:52.027Z,101240.69
2023-08-08T15:52:57.140Z,101226.53
2023-08-08T15:54:58.820Z,101229.75
2023-08-08T15:57:03.414Z,101227.03
2023-08-08T15:59:06.100Z,101215.44
2023-08-08T16:01:08.119Z,101219.66
2023-08-08T16:03:09.709Z,101213.81
2023-08-08T16:05:11.590Z,101221.63
2023-08-08T16:07:13.841Z,101208.16
2023-08-08T16:09:15.617Z,101201.22
2023-08-08T16:11:17.321Z,101201.66
2023-08-08T16:13:18.903Z,101195.56
2023-08-08T16:15:20.905Z,101197.44
2023-08-08T16:17:22.598Z,101197.22
2023-08-08T16:19:24.136Z,101190.75
2023-08-08T16:21:25.713Z,101194.09
2023-08-08T16:23:27.343Z,101199.38
2023-08-08T16:25:29.036Z,101200.88
2023-08-08T16:27:30.669Z,101197.97
2023-08-08T16:29:32.735Z,101184.94
2023-08-08T16:31:35.586Z,101190.50
2023-08-08T16:33:37.437Z,101191.13
2023-08-08T16:35:39.036Z,101191.78
2023-08-08T16:37:41.141Z,101194.97
2023-08-08T16:39:42.857Z,101182.16
2023-08-08T16:41:44.515Z,101175.22
2023-08-08T16:43:53.971Z,101168.47
2023-08-08T16:45:55.579Z,101161.97
2023-08-08T16:47:57.220Z,101166.41
2023-08-08T16:49:58.919Z,101167.25
2023-08-08T16:52:01.322Z,101176.28
2023-08-08T16:54:03.234Z,101187.22
2023-08-08T16:56:07.927Z,101190.16
2023-08-08T16:58:09.629Z,101180.47
2023-08-08T17:00:11.765Z,101179.59
2023-08-08T17:02:13.616Z,101173.31
2023-08-08T17:04:16.232Z,101173.22
2023-08-08T17:06:17.853Z,101194.53
2023-08-08T17:08:19.528Z,101195.75
2023-08-08T17:10:21.328Z,101198.69
2023-08-08T17:12:23.102Z,101201.63
2023-08-08T17:14:25.261Z,101204.75
2023-08-08T17:16:27.292Z,101205.97
2023-08-08T17:18:28.904Z,101208.06
2023-08-08T17:20:30.843Z,101206.34
2023-08-08T17:22:33.365Z,101198.34
2023-08-08T17:24:39.806Z,101201.47
2023-08-08T17:26:42.350Z,101205.03
2023-08-08T17:28:44.124Z,101209.47
2023-08-08T17:30:45.755Z,101205.81
2023-08-08T17:32:47.559Z,101207.50
2023-08-08T17:34:49.422Z,101205.38
2023-08-08T17:36:51.809Z,101212.50
2023-08-08T17:38:53.558Z,101210.84
2023-08-08T17:40:55.173Z,101203.28
2023-08-08T17:42:57.447Z,101196.97
2023-08-08T17:44:59.053Z,101208.34
2023-08-08T17:47:00.723Z,101203.75
2023-08-08T17:49:02.444Z,101210.88
2023-08-08T17:51:04.119Z,101207.72
2023-08-08T17:53:05.747Z,101214.69
2023-08-08T17:55:08.056Z,101203.75
2023-08-08T17:57:09.914Z,101202.06
2023-08-08T17:59:12.579Z,101204.78
2023-08-08T18:01:14.679Z,101220.16
2023-08-08T18:03:16.421Z,101218.88
2023-08-08T18:05:18.144Z,101220.59
2023-08-08T18:07:22.506Z,101221.44
2023-08-08T18:09:24.128Z,101223.13
2023-08-08T18:11:25.748Z,101225.66
2023-08-08T18:13:27.364Z,101230.28
2023-08-08T18:15:29.098Z,101219.56
2023-08-08T18:17:30.788Z,101227.81
2023-08-08T18:19:33.638Z,101219.81
2023-08-08T18:21:35.314Z,101217.72
2023-08-08T18:23:37.792Z,101207.66
2023-08-08T18:25:43.559Z,101203.88
2023-08-08T18:27:47.858Z,101195.47
2023-08-08T18:29:49.420Z,101188.78
2023-08-08T18:31:51.045Z,101185.03
2023-08-08T18:34:00.453Z,101197.25
2023-08-08T18:36:04.697Z,101197.25
2023-08-08T18:38:06.538Z,101201.88
2023-08-08T18:40:12.568Z,101205.47
2023-08-08T18:42:14.665Z,101201.03
2023-08-08T18:44:16.482Z,101191.78
2023-08-08T18:46:20.373Z,101189.72
2023-08-08T18:48:22.139Z,101177.53
2023-08-08T18:50:25.210Z,101168.88
2023-08-08T18:52:27.082Z,101172.91
2023-08-08T18:54:28.795Z,101180.09
2023-08-08T18:56:30.707Z,101173.31
2023-08-08T18:58:32.444Z,101187.22
2023-08-08T19:00:34.086Z,101184.47
2023-08-08T19:02:35.754Z,101180.53
2023-08-08T19:04:37.509Z,101179.50
2023-08-08T19:06:39.226Z,101173.81
2023-08-08T19:08:41.212Z,101167.50
2023-08-08T19:10:43.003Z,101165.81
2023-08-08T19:12:44.638Z,101163.94
2023-08-08T19:14:46.411Z,101166.66
2023-08-08T19:16:48.002Z,101161.59
2023-08-08T19:18:49.904Z,101162.44
2023-08-08T19:20:51.554Z,101158.84
2023-08-08T19:22:53.377Z,101160.75
2023-08-08T19:24:54.972Z,101161.59
2023-08-08T19:26:56.561Z,101156.53
2023-08-08T19:28:58.182Z,101156.31
2023-08-08T19:30:59.788Z,101152.56
2023-08-08T19:33:01.397Z,101138.22
2023-08-08T19:35:03.158Z,101133.63
2023-08-08T19:37:04.895Z,101130.22
2023-08-08T19:39:06.653Z,101115.91
2023-08-08T19:41:09.221Z,101117.81
2023-08-08T19:47:23.939Z,101125.53
2023-08-08T19:49:25.719Z,101129.31
2023-08-08T19:51:28.986Z,101131.59
2023-08-08T19:53:30.680Z,101127.16
2023-08-08T19:55:32.585Z,101145.66
2023-08-08T19:57:34.444Z,101145.84
2023-08-08T19:59:36.274Z,101142.47
2023-08-08T20:01:37.976Z,101136.94
2023-08-08T20:03:41.939Z,101149.56
2023-08-08T20:05:43.782Z,101146.19
2023-08-08T20:07:45.512Z,101148.25
2023-08-08T20:09:47.079Z,101146.09
2023-08-08T20:11:48.828Z,101151.75
2023-08-08T20:13:50.491Z,101163.72
2023-08-08T20:15:52.186Z,101167.72
2023-08-08T20:17:53.909Z,101177.13
2023-08-08T20:19:55.637Z,101175.63
2023-08-08T20:21:57.591Z,101173.94
2023-08-08T20:23:59.494Z,101168.69
2023-08-08T20:26:03.447Z,101175.34
2023-08-08T20:28:06.153Z,101174.72
2023-08-08T20:30:08.571Z,101178.19
2023-08-08T20:32:10.232Z,101188.09
2023-08-08T20:34:11.923Z,101187.25
2023-08-08T20:36:15.022Z,101193.09
2023-08-08T20:38:16.904Z,101195.81
2023-08-08T20:40:18.645Z,101184.41
2023-08-08T20:42:20.382Z,101184.41
2023-08-08T20:44:21.966Z,101184.81
2023-08-08T20:46:23.552Z,101194.88
2023-08-08T20:48:25.250Z,101190.63
2023-08-08T20:50:27.302Z,101192.50
2023-08-08T20:52:28.886Z,101193.72
2023-08-08T20:54:30.660Z,101204.00
2023-08-08T20:56:32.348Z,101205.22
2023-08-08T20:58:33.955Z,101206.25
2023-08-08T21:00:36.923Z,101203.91
2023-08-08T21:02:38.878Z,101204.09
2023-08-08T21:04:40.547Z,101207.88
2023-08-08T21:06:42.148Z,101213.72
2023-08-08T21:08:43.837Z,101215.38
2023-08-08T21:10:45.550Z,101220.19
2023-08-08T21:12:47.157Z,101230.28
2023-08-08T21:14:48.784Z,101233.19
2023-08-08T21:16:50.463Z,101237.78
2023-08-08T21:18:52.056Z,101231.03
2023-08-08T21:20:55.147Z,101236.31
2023-08-08T21:22:58.313Z,101223.88
2023-08-08T21:24:59.958Z,101217.59
2023-08-08T21:27:01.740Z,101237.72
2023-08-08T21:29:03.467Z,101237.91
2023-08-08T21:31:05.224Z,101233.47
2023-08-08T21:33:06.935Z,101233.47
2023-08-08T21:35:08.640Z,101235.34
2023-08-08T21:37:10.241Z,101239.50
2023-08-08T21:39:11.808Z,101235.72
2023-08-08T21:41:13.441Z,101234.03
2023-08-08T21:43:15.258Z,101233.19
2023-08-08T21:45:16.997Z,101238.84
2023-08-08T21:47:19.304Z,101236.13
2023-08-08T21:49:20.874Z,101229.78
2023-08-08T21:51:22.425Z,101224.50
2023-08-08T21:53:24.021Z,101232.50
2023-08-08T21:55:25.748Z,101229.13
2023-08-08T21:57:27.451Z,101221.97
2023-08-08T21:59:29.221Z,101209.78
2023-08-08T22:01:30.819Z,101216.72
2023-08-08T22:03:32.381Z,101206.84
2023-08-08T22:05:34.023Z,101217.75
2023-08-08T22:07:35.734Z,101207.22
2023-08-08T22:09:37.572Z,101218.13
2023-08-08T22:11:39.228Z,101216.25
2023-08-08T22:13:40.912Z,101218.13
2023-08-08T22:15:42.485Z,101213.06
2023-08-08T22:17:53.442Z,101211.16
2023-08-08T22:20:07.117Z,101208.63
2023-08-08T22:22:08.752Z,101203.16
2023-08-08T22:24:10.290Z,101208.63
2023-08-08T22:26:11.875Z,101205.06
2023-08-08T22:28:13.501Z,101206.09
2023-08-08T22:32:22.868Z,101195.94
2023-08-08T22:34:24.469Z,101186.50
2023-08-08T22:36:26.039Z,101190.09
2023-08-08T22:38:27.757Z,101188.59
2023-08-08T22:40:30.305Z,101193.19
2023-08-08T22:42:31.968Z,101198.66
2023-08-08T22:44:33.593Z,101190.66
2023-08-08T22:46:35.376Z,101194.59
2023-08-08T22:48:37.117Z,101189.16
2023-08-08T22:50:41.866Z,101193.75
2023-08-08T22:52:43.527Z,101192.91
2023-08-08T22:54:45.521Z,101202.31
2023-08-08T22:56:47.096Z,101206.91
2023-08-08T22:58:48.724Z,101195.16
2023-08-08T23:00:50.379Z,101187.16
2023-08-08T23:02:52.613Z,101192.63
2023-08-08T23:04:54.328Z,101202.69
2023-08-08T23:06:56.476Z,101192.81
2023-08-08T23:08:58.114Z,101191.28
2023-08-08T23:11:00.508Z,101185.00
2023-08-08T23:13:02.282Z,101175.31
2023-08-08T23:15:04.765Z,101177.19
2023-08-08T23:17:06.574Z,101173.59
2023-08-08T23:19:08.320Z,101161.84
2023-08-08T23:21:09.926Z,101165.59
2023-08-08T23:23:11.563Z,101162.88
2023-08-08T23:25:13.803Z,101161.22
2023-08-08T23:27:16.178Z,101163.94
2023-08-08T23:31:24.591Z,101165.78
2023-08-08T23:33:26.176Z,101164.28
2023-08-08T23:35:27.889Z,101164.91
2023-08-08T23:37:29.593Z,101171.41
2023-08-08T23:39:31.623Z,101180.44
2023-08-08T23:41:33.775Z,101191.34
2023-08-08T23:43:35.453Z,101194.06
2023-08-08T23:45:37.163Z,101195.09
2023-08-08T23:47:39.529Z,101202.44